sensor_id;sensor_type;location;lat;lon;timestamp;pressure;altitude;pressure_sealevel;temperature;humidity
43115;BME280;28727;50.068;14.452;2022-12-29T00:02:16;99040.88;;;6.81;60.74
43115;BME280;28727;50.068;14.452;2022-12-29T00:04:50;99032.34;;;6.79;60.76
43115;BME280;28727;50.068;14.452;2022-12-29T00:07:24;99039.09;;;6.82;60.82
43115;BME280;28727;50.068;14.452;2022-12-29T00:09:57;99034.66;;;6.82;60.46
43115;BME280;28727;50.068;14.452;2022-12-29T00:12:29;99020.84;;;6.80;60.91
43115;BME280;28727;50.068;14.452;2022-12-29T00:15:21;99019.19;;;6.79;60.81
43115;BME280;28727;50.068;14.452;2022-12-29T00:18:11;99015.94;;;6.77;60.93
43115;BME280;28727;50.068;14.452;2022-12-29T00:20:45;99012.00;;;6.81;60.66
43115;BME280;28727;50.068;14.452;2022-12-29T00:23:37;99011.47;;;6.78;60.84
43115;BME280;28727;50.068;14.452;2022-12-29T00:26:28;99007.22;;;6.77;60.62
43115;BME280;28727;50.068;14.452;2022-12-29T00:29:18;99001.28;;;6.75;60.69
43115;BME280;28727;50.068;14.452;2022-12-29T00:32:11;99021.47;;;6.74;60.39
43115;BME280;28727;50.068;14.452;2022-12-29T00:35:01;99016.06;;;6.76;59.90
43115;BME280;28727;50.068;14.452;2022-12-29T00:37:46;99015.59;;;6.80;60.25
43115;BME280;28727;50.068;14.452;2022-12-29T00:40:38;98999.03;;;6.80;59.89
43115;BME280;28727;50.068;14.452;2022-12-29T00:43:28;98992.13;;;6.79;60.08
43115;BME280;28727;50.068;14.452;2022-12-29T00:46:20;98992.47;;;6.84;59.69
43115;BME280;28727;50.068;14.452;2022-12-29T00:48:52;99002.63;;;6.79;59.42
43115;BME280;28727;50.068;14.452;2022-12-29T00:51:45;99002.47;;;6.80;59.28
43115;BME280;28727;50.068;14.452;2022-12-29T00:54:17;99002.69;;;6.87;59.14
43115;BME280;28727;50.068;14.452;2022-12-29T00:56:51;99011.69;;;6.84;59.08
43115;BME280;28727;50.068;14.452;2022-12-29T00:59:26;99001.03;;;6.86;59.16
43115;BME280;28727;50.068;14.452;2022-12-29T01:02:01;98999.94;;;6.88;59.58
43115;BME280;28727;50.068;14.452;2022-12-29T01:04:33;99001.03;;;6.86;59.00
43115;BME280;28727;50.068;14.452;2022-12-29T01:07:05;98996.16;;;6.91;58.76
43115;BME280;28727;50.068;14.452;2022-12-29T01:09:37;98997.31;;;6.88;59.25
43115;BME280;28727;50.068;14.452;2022-12-29T01:12:27;98993.38;;;6.92;58.86
43115;BME280;28727;50.068;14.452;2022-12-29T01:15:16;98987.91;;;6.86;58.58
43115;BME280;28727;50.068;14.452;2022-12-29T01:17:48;98995.19;;;6.92;58.79
43115;BME280;28727;50.068;14.452;2022-12-29T01:20:20;98986.63;;;6.90;58.63
43115;BME280;28727;50.068;14.452;2022-12-29T01:22:52;98987.63;;;6.89;58.43
43115;BME280;28727;50.068;14.452;2022-12-29T01:25:24;99000.75;;;6.89;58.10
43115;BME280;28727;50.068;14.452;2022-12-29T01:27:56;98996.47;;;6.88;58.69
43115;BME280;28727;50.068;14.452;2022-12-29T01:30:27;98993.03;;;6.87;58.40
43115;BME280;28727;50.068;14.452;2022-12-29T01:33:03;98990.41;;;6.87;58.79
43115;BME280;28727;50.068;14.452;2022-12-29T01:35:34;98990.75;;;6.92;58.32
43115;BME280;28727;50.068;14.452;2022-12-29T01:38:06;98990.06;;;6.90;57.93
43115;BME280;28727;50.068;14.452;2022-12-29T01:40:44;98979.44;;;6.92;58.14
43115;BME280;28727;50.068;14.452;2022-12-29T01:43:16;98976.66;;;6.93;57.57
43115;BME280;28727;50.068;14.452;2022-12-29T01:45:50;98980.94;;;6.94;57.62
43115;BME280;28727;50.068;14.452;2022-12-29T01:48:22;98972.53;;;6.91;57.07
43115;BME280;28727;50.068;14.452;2022-12-29T01:50:55;98962.69;;;6.93;57.26
43115;BME280;28727;50.068;14.452;2022-12-29T01:53:31;98968.78;;;6.93;57.00
43115;BME280;28727;50.068;14.452;2022-12-29T01:56:07;98959.75;;;6.96;56.68
43115;BME280;28727;50.068;14.452;2022-12-29T01:58:44;98961.94;;;7.01;56.35
43115;BME280;28727;50.068;14.452;2022-12-29T02:01:19;98961.25;;;6.98;56.64
43115;BME280;28727;50.068;14.452;2022-12-29T02:03:52;98962.91;;;6.99;56.25
43115;BME280;28727;50.068;14.452;2022-12-29T02:06:28;98958.16;;;7.03;55.45
43115;BME280;28727;50.068;14.452;2022-12-29T02:09:01;98944.88;;;7.05;55.64
43115;BME280;28727;50.068;14.452;2022-12-29T02:11:34;98941.63;;;7.11;55.63
43115;BME280;28727;50.068;14.452;2022-12-29T02:14:11;98948.53;;;7.12;55.25
43115;BME280;28727;50.068;14.452;2022-12-29T02:17:15;98938.03;;;7.12;54.99
43115;BME280;28727;50.068;14.452;2022-12-29T02:34:52;98956.84;;;7.07;54.95
43115;BME280;28727;50.068;14.452;2022-12-29T02:40:38;98940.31;;;7.07;55.23
43115;BME280;28727;50.068;14.452;2022-12-29T02:45:58;98930.44;;;7.09;55.48
43115;BME280;28727;50.068;14.452;2022-12-29T02:48:56;98921.91;;;7.07;55.11
43115;BME280;28727;50.068;14.452;2022-12-29T02:54:18;98921.44;;;7.11;55.05
43115;BME280;28727;50.068;14.452;2022-12-29T03:00:05;98910.41;;;7.08;55.12
43115;BME280;28727;50.068;14.452;2022-12-29T03:11:11;98918.81;;;7.11;54.59
43115;BME280;28727;50.068;14.452;2022-12-29T03:14:09;98904.09;;;7.18;55.00
43115;BME280;28727;50.068;14.452;2022-12-29T03:17:11;98895.38;;;7.18;54.87
43115;BME280;28727;50.068;14.452;2022-12-29T03:19:48;98903.75;;;7.21;54.50
43115;BME280;28727;50.068;14.452;2022-12-29T03:22:28;98899.81;;;7.25;54.26
43115;BME280;28727;50.068;14.452;2022-12-29T03:25:23;98896.88;;;7.28;54.48
43115;BME280;28727;50.068;14.452;2022-12-29T03:28:09;98897.38;;;7.32;54.40
43115;BME280;28727;50.068;14.452;2022-12-29T03:30:47;98908.56;;;7.34;54.10
43115;BME280;28727;50.068;14.452;2022-12-29T03:33:24;98903.81;;;7.37;54.24
43115;BME280;28727;50.068;14.452;2022-12-29T03:36:00;98915.81;;;7.40;53.91
43115;BME280;28727;50.068;14.452;2022-12-29T03:38:42;98919.09;;;7.42;53.73
43115;BME280;28727;50.068;14.452;2022-12-29T03:41:20;98921.88;;;7.40;53.88
43115;BME280;28727;50.068;14.452;2022-12-29T03:43:52;98926.16;;;7.42;54.02
43115;BME280;28727;50.068;14.452;2022-12-29T03:46:24;98915.50;;;7.51;54.36
43115;BME280;28727;50.068;14.452;2022-12-29T03:48:56;98913.72;;;7.52;53.34
43115;BME280;28727;50.068;14.452;2022-12-29T03:51:28;98910.75;;;7.55;53.30
43115;BME280;28727;50.068;14.452;2022-12-29T03:54:00;98908.13;;;7.55;53.57
43115;BME280;28727;50.068;14.452;2022-12-29T03:56:33;98910.44;;;7.58;52.86
43115;BME280;28727;50.068;14.452;2022-12-29T03:59:05;98910.63;;;7.64;53.75
43115;BME280;28727;50.068;14.452;2022-12-29T04:01:43;98905.53;;;7.63;53.74
43115;BME280;28727;50.068;14.452;2022-12-29T04:04:17;98905.19;;;7.66;52.99
43115;BME280;28727;50.068;14.452;2022-12-29T04:06:50;98902.75;;;7.64;53.13
43115;BME280;28727;50.068;14.452;2022-12-29T04:09:22;98897.97;;;7.68;53.04
43115;BME280;28727;50.068;14.452;2022-12-29T04:12:01;98898.66;;;7.70;53.04
43115;BME280;28727;50.068;14.452;2022-12-29T04:14:33;98900.28;;;7.71;53.63
43115;BME280;28727;50.068;14.452;2022-12-29T04:17:06;98895.84;;;7.71;52.91
43115;BME280;28727;50.068;14.452;2022-12-29T04:19:38;98886.97;;;7.72;52.58
43115;BME280;28727;50.068;14.452;2022-12-29T04:22:10;98886.66;;;7.75;53.67
43115;BME280;28727;50.068;14.452;2022-12-29T04:24:44;98879.59;;;7.76;52.90
43115;BME280;28727;50.068;14.452;2022-12-29T04:27:16;98881.41;;;7.75;53.34
43115;BME280;28727;50.068;14.452;2022-12-29T04:30:24;98872.69;;;7.75;53.44
43115;BME280;28727;50.068;14.452;2022-12-29T04:33:22;98867.28;;;7.76;53.52
43115;BME280;28727;50.068;14.452;2022-12-29T04:35:55;98875.50;;;7.81;52.89
43115;BME280;28727;50.068;14.452;2022-12-29T04:38:28;98881.38;;;7.83;53.23
43115;BME280;28727;50.068;14.452;2022-12-29T04:41:04;98880.44;;;7.93;53.09
43115;BME280;28727;50.068;14.452;2022-12-29T04:43:38;98881.44;;;8.00;52.61
43115;BME280;28727;50.068;14.452;2022-12-29T04:46:33;98874.16;;;8.02;52.79
43115;BME280;28727;50.068;14.452;2022-12-29T04:49:12;98873.50;;;8.08;53.34
43115;BME280;28727;50.068;14.452;2022-12-29T04:52:20;98862.84;;;8.09;52.58
43115;BME280;28727;50.068;14.452;2022-12-29T04:54:51;98868.41;;;8.14;52.58
43115;BME280;28727;50.068;14.452;2022-12-29T04:57:25;98868.44;;;8.22;52.62
43115;BME280;28727;50.068;14.452;2022-12-29T05:00:00;98875.00;;;8.27;52.32
43115;BME280;28727;50.068;14.452;2022-12-29T05:02:32;98873.53;;;8.32;53.16
43115;BME280;28727;50.068;14.452;2022-12-29T05:05:05;98869.75;;;8.35;52.78
43115;BME280;28727;50.068;14.452;2022-12-29T05:07:42;98877.66;;;8.35;52.63
43115;BME280;28727;50.068;14.452;2022-12-29T05:10:14;98871.41;;;8.36;52.52
43115;BME280;28727;50.068;14.452;2022-12-29T05:12:46;98874.88;;;8.36;52.09
43115;BME280;28727;50.068;14.452;2022-12-29T05:15:19;98873.22;;;8.35;52.47
43115;BME280;28727;50.068;14.452;2022-12-29T05:17:51;98865.97;;;8.37;52.43
43115;BME280;28727;50.068;14.452;2022-12-29T05:20:26;98865.81;;;8.39;51.79
43115;BME280;28727;50.068;14.452;2022-12-29T05:23:01;98867.09;;;8.43;52.57
43115;BME280;28727;50.068;14.452;2022-12-29T05:25:33;98867.28;;;8.41;52.02
43115;BME280;28727;50.068;14.452;2022-12-29T05:28:28;98871.38;;;8.44;51.87
43115;BME280;28727;50.068;14.452;2022-12-29T05:31:08;98871.38;;;8.44;52.45
43115;BME280;28727;50.068;14.452;2022-12-29T05:33:40;98870.56;;;8.43;52.09
43115;BME280;28727;50.068;14.452;2022-12-29T05:36:13;98872.56;;;8.41;51.57
43115;BME280;28727;50.068;14.452;2022-12-29T05:38:49;98866.94;;;8.44;51.17
43115;BME280;28727;50.068;14.452;2022-12-29T05:41:22;98861.53;;;8.46;51.36
43115;BME280;28727;50.068;14.452;2022-12-29T05:44:00;98863.16;;;8.47;51.20
43115;BME280;28727;50.068;14.452;2022-12-29T05:46:34;98857.41;;;8.51;51.35
43115;BME280;28727;50.068;14.452;2022-12-29T05:49:12;98852.44;;;8.48;51.21
43115;BME280;28727;50.068;14.452;2022-12-29T05:52:10;98857.41;;;8.43;50.59
43115;BME280;28727;50.068;14.452;2022-12-29T05:54:42;98858.22;;;8.44;51.03
43115;BME280;28727;50.068;14.452;2022-12-29T05:57:17;98856.25;;;8.38;51.11
43115;BME280;28727;50.068;14.452;2022-12-29T05:59:54;98838.34;;;8.41;51.23
43115;BME280;28727;50.068;14.452;2022-12-29T06:02:26;98832.72;;;8.44;51.25
43115;BME280;28727;50.068;14.452;2022-12-29T06:04:58;98855.44;;;8.45;50.87
43115;BME280;28727;50.068;14.452;2022-12-29T06:07:30;98844.75;;;8.47;50.80
43115;BME280;28727;50.068;14.452;2022-12-29T06:10:03;98848.19;;;8.47;50.35
43115;BME280;28727;50.068;14.452;2022-12-29T06:12:39;98847.03;;;8.58;50.63
43115;BME280;28727;50.068;14.452;2022-12-29T06:15:11;98845.84;;;8.60;51.54
43115;BME280;28727;50.068;14.452;2022-12-29T06:17:44;98847.34;;;8.63;50.48
43115;BME280;28727;50.068;14.452;2022-12-29T06:20:17;98845.53;;;8.63;51.34
43115;BME280;28727;50.068;14.452;2022-12-29T06:22:49;98855.06;;;8.65;50.79
43115;BME280;28727;50.068;14.452;2022-12-29T06:25:24;98849.81;;;8.65;50.94
43115;BME280;28727;50.068;14.452;2022-12-29T06:27:56;98851.56;;;8.72;50.34
43115;BME280;28727;50.068;14.452;2022-12-29T06:30:29;98848.09;;;8.80;50.06
43115;BME280;28727;50.068;14.452;2022-12-29T06:33:02;98850.91;;;8.78;50.42
43115;BME280;28727;50.068;14.452;2022-12-29T06:35:34;98844.66;;;8.79;49.69
43115;BME280;28727;50.068;14.452;2022-12-29T06:38:05;98852.22;;;8.82;50.88
43115;BME280;28727;50.068;14.452;2022-12-29T06:40:39;98858.78;;;8.78;50.15
43115;BME280;28727;50.068;14.452;2022-12-29T06:43:39;98851.41;;;8.74;50.09
43115;BME280;28727;50.068;14.452;2022-12-29T06:46:28;98856.69;;;8.74;50.21
43115;BME280;28727;50.068;14.452;2022-12-29T06:49:02;98863.13;;;8.71;50.38
43115;BME280;28727;50.068;14.452;2022-12-29T06:51:34;98864.75;;;8.72;50.42
43115;BME280;28727;50.068;14.452;2022-12-29T06:54:06;98860.13;;;8.74;50.82
43115;BME280;28727;50.068;14.452;2022-12-29T06:56:38;98864.41;;;8.75;50.75
43115;BME280;28727;50.068;14.452;2022-12-29T06:59:10;98871.66;;;8.73;50.70
43115;BME280;28727;50.068;14.452;2022-12-29T07:01:42;98857.19;;;8.69;50.86
43115;BME280;28727;50.068;14.452;2022-12-29T07:04:16;98854.72;;;8.76;50.51
43115;BME280;28727;50.068;14.452;2022-12-29T07:06:49;98858.47;;;8.73;50.83
43115;BME280;28727;50.068;14.452;2022-12-29T07:09:21;98860.78;;;8.76;50.93
43115;BME280;28727;50.068;14.452;2022-12-29T07:11:53;98868.50;;;8.78;50.54
43115;BME280;28727;50.068;14.452;2022-12-29T07:14:25;98873.13;;;8.76;50.45
43115;BME280;28727;50.068;14.452;2022-12-29T07:16:57;98872.63;;;8.72;50.83
43115;BME280;28727;50.068;14.452;2022-12-29T07:19:29;98881.88;;;8.68;51.06
43115;BME280;28727;50.068;14.452;2022-12-29T07:22:01;98891.06;;;8.72;51.27
43115;BME280;28727;50.068;14.452;2022-12-29T07:24:35;98885.16;;;8.70;50.88
43115;BME280;28727;50.068;14.452;2022-12-29T07:27:07;98882.69;;;8.69;50.69
43115;BME280;28727;50.068;14.452;2022-12-29T07:29:39;98882.53;;;8.70;50.78
43115;BME280;28727;50.068;14.452;2022-12-29T07:32:11;98880.38;;;8.74;50.61
43115;BME280;28727;50.068;14.452;2022-12-29T07:34:44;98870.31;;;8.85;51.04
43115;BME280;28727;50.068;14.452;2022-12-29T07:37:18;98870.44;;;8.92;50.52
43115;BME280;28727;50.068;14.452;2022-12-29T07:39:50;98866.34;;;8.89;51.00
43115;BME280;28727;50.068;14.452;2022-12-29T07:42:22;98862.25;;;8.87;50.72
43115;BME280;28727;50.068;14.452;2022-12-29T07:44:56;98864.88;;;8.87;50.12
43115;BME280;28727;50.068;14.452;2022-12-29T07:47:37;98869.78;;;8.90;51.21
43115;BME280;28727;50.068;14.452;2022-12-29T07:50:09;98859.25;;;8.90;51.07
43115;BME280;28727;50.068;14.452;2022-12-29T07:52:41;98864.03;;;8.94;50.65
43115;BME280;28727;50.068;14.452;2022-12-29T07:55:15;98863.84;;;8.96;50.67
43115;BME280;28727;50.068;14.452;2022-12-29T07:57:49;98859.22;;;8.98;50.78
43115;BME280;28727;50.068;14.452;2022-12-29T08:00:24;98863.50;;;8.99;50.20
43115;BME280;28727;50.068;14.452;2022-12-29T08:02:56;98868.13;;;8.97;49.94
43115;BME280;28727;50.068;14.452;2022-12-29T08:05:28;98876.03;;;8.97;50.23
43115;BME280;28727;50.068;14.452;2022-12-29T08:08:00;98865.50;;;8.97;50.52
43115;BME280;28727;50.068;14.452;2022-12-29T08:10:32;98873.69;;;9.02;50.61
43115;BME280;28727;50.068;14.452;2022-12-29T08:13:03;98869.91;;;9.04;50.29
43115;BME280;28727;50.068;14.452;2022-12-29T08:15:37;98878.59;;;9.13;50.25
43115;BME280;28727;50.068;14.452;2022-12-29T08:18:11;98876.75;;;9.22;50.49
43115;BME280;28727;50.068;14.452;2022-12-29T08:20:42;98883.00;;;9.29;50.31
43115;BME280;28727;50.068;14.452;2022-12-29T08:23:14;98866.47;;;9.35;50.46
43115;BME280;28727;50.068;14.452;2022-12-29T08:25:46;98859.03;;;9.38;50.04
43115;BME280;28727;50.068;14.452;2022-12-29T08:28:18;98850.81;;;9.41;50.32
43115;BME280;28727;50.068;14.452;2022-12-29T08:30:50;98856.69;;;9.43;50.31
43115;BME280;28727;50.068;14.452;2022-12-29T08:33:21;98863.47;;;9.46;49.78
43115;BME280;28727;50.068;14.452;2022-12-29T08:36:05;98871.81;;;9.50;50.23
43115;BME280;28727;50.068;14.452;2022-12-29T08:38:38;98869.03;;;9.51;49.97
43115;BME280;28727;50.068;14.452;2022-12-29T08:41:12;98879.03;;;9.56;50.39
43115;BME280;28727;50.068;14.452;2022-12-29T08:43:48;98881.81;;;9.62;50.55
43115;BME280;28727;50.068;14.452;2022-12-29T08:46:20;98883.75;;;9.68;50.20
43115;BME280;28727;50.068;14.452;2022-12-29T08:48:53;98879.75;;;9.72;50.24
43115;BME280;28727;50.068;14.452;2022-12-29T08:51:25;98886.97;;;9.78;50.29
43115;BME280;28727;50.068;14.452;2022-12-29T08:53:57;98879.84;;;9.87;50.11
43115;BME280;28727;50.068;14.452;2022-12-29T08:56:29;98877.16;;;9.95;49.85
43115;BME280;28727;50.068;14.452;2022-12-29T08:59:03;98873.06;;;10.07;49.60
43115;BME280;28727;50.068;14.452;2022-12-29T09:01:35;98876.78;;;10.21;49.58
43115;BME280;28727;50.068;14.452;2022-12-29T09:04:08;98873.38;;;10.35;49.16
43115;BME280;28727;50.068;14.452;2022-12-29T09:06:48;98873.13;;;10.45;48.86
43115;BME280;28727;50.068;14.452;2022-12-29T09:09:20;98876.03;;;10.50;49.16
43115;BME280;28727;50.068;14.452;2022-12-29T09:11:52;98881.97;;;10.66;49.05
43115;BME280;28727;50.068;14.452;2022-12-29T09:14:24;98873.63;;;10.78;48.68
43115;BME280;28727;50.068;14.452;2022-12-29T09:16:56;98862.78;;;10.87;48.59
43115;BME280;28727;50.068;14.452;2022-12-29T09:19:46;98856.75;;;10.93;48.93
43115;BME280;28727;50.068;14.452;2022-12-29T09:22:18;98853.56;;;10.98;48.62
43115;BME280;28727;50.068;14.452;2022-12-29T09:24:50;98869.06;;;11.01;48.70
43115;BME280;28727;50.068;14.452;2022-12-29T09:27:22;98863.41;;;11.04;48.65
43115;BME280;28727;50.068;14.452;2022-12-29T09:29:54;98866.88;;;11.04;49.15
43115;BME280;28727;50.068;14.452;2022-12-29T09:32:26;98875.44;;;11.06;49.26
43115;BME280;28727;50.068;14.452;2022-12-29T09:35:04;98871.41;;;11.11;49.32
43115;BME280;28727;50.068;14.452;2022-12-29T09:37:36;98869.03;;;11.16;49.37
43115;BME280;28727;50.068;14.452;2022-12-29T09:40:30;98882.25;;;11.16;49.18
43115;BME280;28727;50.068;14.452;2022-12-29T09:48:48;98867.94;;;11.10;49.40
43115;BME280;28727;50.068;14.452;2022-12-29T09:51:23;98860.59;;;11.05;49.09
43115;BME280;28727;50.068;14.452;2022-12-29T09:54:00;98863.22;;;11.05;49.35
43115;BME280;28727;50.068;14.452;2022-12-29T09:56:33;98855.72;;;11.09;49.19
43115;BME280;28727;50.068;14.452;2022-12-29T09:59:15;98850.19;;;11.19;49.13
43115;BME280;28727;50.068;14.452;2022-12-29T10:01:57;98852.09;;;11.25;48.68
43115;BME280;28727;50.068;14.452;2022-12-29T10:04:32;98848.41;;;11.40;49.04
43115;BME280;28727;50.068;14.452;2022-12-29T10:07:13;98836.00;;;11.41;48.21
43115;BME280;28727;50.068;14.452;2022-12-29T10:10:10;98837.59;;;11.57;48.85
43115;BME280;28727;50.068;14.452;2022-12-29T10:21:45;98826.00;;;12.90;46.09
43115;BME280;28727;50.068;14.452;2022-12-29T10:24:21;98818.22;;;13.17;44.78
43115;BME280;28727;50.068;14.452;2022-12-29T10:26:55;98817.03;;;13.26;45.21
43115;BME280;28727;50.068;14.452;2022-12-29T10:29:33;98830.19;;;13.53;44.58
43115;BME280;28727;50.068;14.452;2022-12-29T10:32:39;98813.91;;;13.76;43.57
43115;BME280;28727;50.068;14.452;2022-12-29T10:38:00;98806.34;;;13.93;43.03
43115;BME280;28727;50.068;14.452;2022-12-29T10:40:39;98797.75;;;13.84;43.90
43115;BME280;28727;50.068;14.452;2022-12-29T10:46:32;98795.72;;;13.80;43.78
43115;BME280;28727;50.068;14.452;2022-12-29T10:49:14;98786.72;;;13.81;43.45
43115;BME280;28727;50.068;14.452;2022-12-29T10:51:55;98783.66;;;13.90;43.08
43115;BME280;28727;50.068;14.452;2022-12-29T10:54:46;98784.50;;;13.98;43.25
43115;BME280;28727;50.068;14.452;2022-12-29T10:57:28;98778.97;;;14.06;43.37
43115;BME280;28727;50.068;14.452;2022-12-29T11:00:14;98774.88;;;14.16;43.18
43115;BME280;28727;50.068;14.452;2022-12-29T11:06:01;98763.19;;;14.57;42.42
43115;BME280;28727;50.068;14.452;2022-12-29T11:08:38;98758.47;;;14.72;41.77
43115;BME280;28727;50.068;14.452;2022-12-29T11:11:10;98752.25;;;14.85;41.76
43115;BME280;28727;50.068;14.452;2022-12-29T11:13:59;98752.25;;;14.85;41.50
43115;BME280;28727;50.068;14.452;2022-12-29T11:16:37;98752.00;;;14.99;41.64
43115;BME280;28727;50.068;14.452;2022-12-29T11:19:24;98753.88;;;14.92;41.06
43115;BME280;28727;50.068;14.452;2022-12-29T11:22:14;98745.31;;;14.84;41.34
43115;BME280;28727;50.068;14.452;2022-12-29T11:24:47;98744.09;;;14.80;41.76
43115;BME280;28727;50.068;14.452;2022-12-29T11:27:23;98736.84;;;15.00;45.65
43115;BME280;28727;50.068;14.452;2022-12-29T11:29:54;98730.34;;;15.27;45.61
43115;BME280;28727;50.068;14.452;2022-12-29T11:32:29;98730.06;;;15.42;48.96
43115;BME280;28727;50.068;14.452;2022-12-29T11:35:03;98723.03;;;15.61;46.76
43115;BME280;28727;50.068;14.452;2022-12-29T11:37:39;98728.22;;;15.74;46.56
43115;BME280;28727;50.068;14.452;2022-12-29T11:40:19;98730.41;;;15.83;46.94
43115;BME280;28727;50.068;14.452;2022-12-29T11:42:53;98742.63;;;15.91;43.70
43115;BME280;28727;50.068;14.452;2022-12-29T11:45:30;98739.81;;;15.86;47.83
43115;BME280;28727;50.068;14.452;2022-12-29T11:48:18;98736.59;;;15.77;43.48
43115;BME280;28727;50.068;14.452;2022-12-29T11:50:56;98744.47;;;15.66;44.93
43115;BME280;28727;50.068;14.452;2022-12-29T11:53:55;98742.22;;;15.63;45.26
43115;BME280;28727;50.068;14.452;2022-12-29T11:56:39;98744.16;;;15.49;45.07
43115;BME280;28727;50.068;14.452;2022-12-29T11:59:34;98740.56;;;15.37;48.49
43115;BME280;28727;50.068;14.452;2022-12-29T12:11:52;98740.84;;;15.22;45.13
43115;BME280;28727;50.068;14.452;2022-12-29T12:14:30;98749.06;;;15.14;43.42
43115;BME280;28727;50.068;14.452;2022-12-29T12:17:21;98740.00;;;14.84;43.28
43115;BME280;28727;50.068;14.452;2022-12-29T12:20:05;98738.69;;;14.55;43.56
43115;BME280;28727;50.068;14.452;2022-12-29T12:22:46;98738.50;;;14.37;43.93
43115;BME280;28727;50.068;14.452;2022-12-29T12:25:39;98750.34;;;14.34;44.53
43115;BME280;28727;50.068;14.452;2022-12-29T12:28:21;98739.13;;;14.25;43.67
43115;BME280;28727;50.068;14.452;2022-12-29T12:31:17;98744.66;;;14.11;44.91
43115;BME280;28727;50.068;14.452;2022-12-29T12:33:57;98742.44;;;14.01;44.69
43115;BME280;28727;50.068;14.452;2022-12-29T12:46:14;98730.16;;;13.80;45.20
43115;BME280;28727;50.068;14.452;2022-12-29T12:49:49;98730.97;;;13.68;44.93
43115;BME280;28727;50.068;14.452;2022-12-29T12:56:03;98722.81;;;13.63;45.20
43115;BME280;28727;50.068;14.452;2022-12-29T13:10:12;98702.78;;;13.40;46.03
43115;BME280;28727;50.068;14.452;2022-12-29T13:15:48;98713.00;;;13.37;45.98
43115;BME280;28727;50.068;14.452;2022-12-29T13:18:52;98712.56;;;13.33;46.20
43115;BME280;28727;50.068;14.452;2022-12-29T13:24:20;98712.19;;;13.36;46.28
43115;BME280;28727;50.068;14.452;2022-12-29T13:30:12;98708.72;;;13.36;46.78
43115;BME280;28727;50.068;14.452;2022-12-29T13:33:16;98720.16;;;13.36;46.58
43115;BME280;28727;50.068;14.452;2022-12-29T13:41:34;98730.13;;;13.34;47.05
43115;BME280;28727;50.068;14.452;2022-12-29T13:44:10;98735.63;;;13.33;47.40
43115;BME280;28727;50.068;14.452;2022-12-29T13:46:46;98736.25;;;13.35;47.14
43115;BME280;28727;50.068;14.452;2022-12-29T13:49:20;98732.78;;;13.34;47.36
43115;BME280;28727;50.068;14.452;2022-12-29T13:51:58;98741.56;;;13.35;47.22
43115;BME280;28727;50.068;14.452;2022-12-29T14:01:08;98744.63;;;13.45;47.00
43115;BME280;28727;50.068;14.452;2022-12-29T14:03:53;98744.63;;;13.45;47.22
43115;BME280;28727;50.068;14.452;2022-12-29T14:06:31;98746.47;;;13.44;47.07
43115;BME280;28727;50.068;14.452;2022-12-29T14:13:02;98745.44;;;13.45;47.14
43115;BME280;28727;50.068;14.452;2022-12-29T14:15:22;98751.38;;;13.41;47.13
43115;BME280;28727;50.068;14.452;2022-12-29T14:18:20;98753.41;;;13.39;47.31
43115;BME280;28727;50.068;14.452;2022-12-29T14:20:57;98761.53;;;13.37;47.52
43115;BME280;28727;50.068;14.452;2022-12-29T14:35:37;98757.28;;;13.30;47.22
43115;BME280;28727;50.068;14.452;2022-12-29T14:38:14;98752.75;;;13.24;47.34
43115;BME280;28727;50.068;14.452;2022-12-29T14:40:48;98756.44;;;13.23;47.21
43115;BME280;28727;50.068;14.452;2022-12-29T14:43:23;98761.94;;;13.21;47.62
43115;BME280;28727;50.068;14.452;2022-12-29T14:45:59;98763.97;;;13.19;47.53
43115;BME280;28727;50.068;14.452;2022-12-29T14:48:42;98765.38;;;13.15;47.46
43115;BME280;28727;50.068;14.452;2022-12-29T14:51:30;98764.94;;;13.11;47.84
43115;BME280;28727;50.068;14.452;2022-12-29T14:57:06;98765.31;;;13.08;48.04
43115;BME280;28727;50.068;14.452;2022-12-29T14:59:39;98771.03;;;13.05;48.13
43115;BME280;28727;50.068;14.452;2022-12-29T15:02:21;98780.59;;;13.00;47.90
43115;BME280;28727;50.068;14.452;2022-12-29T15:04:59;98777.91;;;12.93;48.12
43115;BME280;28727;50.068;14.452;2022-12-29T15:07:32;98784.63;;;12.89;48.15
43115;BME280;28727;50.068;14.452;2022-12-29T15:10:11;98784.00;;;12.87;48.53
43115;BME280;28727;50.068;14.452;2022-12-29T15:12:52;98789.28;;;12.81;48.14
43115;BME280;28727;50.068;14.452;2022-12-29T15:15:27;98783.94;;;12.74;48.39
43115;BME280;28727;50.068;14.452;2022-12-29T15:21:02;98779.00;;;12.64;48.72
43115;BME280;28727;50.068;14.452;2022-12-29T15:23:34;98775.53;;;12.64;49.08
43115;BME280;28727;50.068;14.452;2022-12-29T15:26:08;98781.03;;;12.62;48.95
43115;BME280;28727;50.068;14.452;2022-12-29T15:28:45;98775.31;;;12.59;49.24
43115;BME280;28727;50.068;14.452;2022-12-29T15:31:23;98786.28;;;12.56;49.29
43115;BME280;28727;50.068;14.452;2022-12-29T15:34:09;98782.41;;;12.52;48.95
43115;BME280;28727;50.068;14.452;2022-12-29T15:36:41;98772.41;;;12.47;49.18
43115;BME280;28727;50.068;14.452;2022-12-29T15:39:30;98773.78;;;12.43;49.69
43115;BME280;28727;50.068;14.452;2022-12-29T15:44:52;98782.31;;;12.39;49.58
43115;BME280;28727;50.068;14.452;2022-12-29T15:47:42;98788.00;;;12.36;49.67
43115;BME280;28727;50.068;14.452;2022-12-29T15:50:22;98782.91;;;12.34;50.20
43115;BME280;28727;50.068;14.452;2022-12-29T15:52:56;98792.25;;;12.30;50.20
43115;BME280;28727;50.068;14.452;2022-12-29T15:55:31;98798.94;;;12.26;49.98
43115;BME280;28727;50.068;14.452;2022-12-29T15:58:28;98791.19;;;12.24;50.15
43115;BME280;28727;50.068;14.452;2022-12-29T16:01:01;98796.88;;;12.21;50.53
43115;BME280;28727;50.068;14.452;2022-12-29T16:03:36;98797.03;;;12.20;50.58
43115;BME280;28727;50.068;14.452;2022-12-29T16:06:29;98807.03;;;12.18;50.97
43115;BME280;28727;50.068;14.452;2022-12-29T16:09:05;98810.88;;;12.15;50.79
43115;BME280;28727;50.068;14.452;2022-12-29T16:11:40;98809.81;;;12.10;51.18